Time,TemperatureF,DewpointF,PressureIn,WindDirection,WindDirectionDegrees,WindSpeedMPH,WindSpeedGustMPH,Humidity,HourlyPrecipIn,Conditions,Clouds,dailyrainin,SolarRadiationWatts/m^2,SoftwareType,DateUTC
2013-07-22 00:03:00,67.7,62.7,29.91,SSW,200,3.5,3.5,84,0.00,CLR,,0.00,0.0,WeatherDisplay:10.37,2013-07-22 07:03:00,
2013-07-22 00:08:00,67.6,62.6,29.91,SSW,200,4.0,4.0,84,0.00,CLR,,0.00,0.0,WeatherDisplay:10.37,2013-07-22 07:08:00,
2013-07-22 00:13:00,67.5,62.5,29.91,SSW,200,4.0,4.0,84,0.00,CLR,,0.00,0.0,WeatherDisplay:10.37,2013-07-22 07:13:00,
2013-07-22 00:18:00,67.4,62.4,29.91,SSW,200,2.3,2.3,84,0.00,CLR,,0.00,0.0,WeatherDisplay:10.37,2013-07-22 07:18:00,
2013-07-22 00:23:00,67.3,62.3,29.91,SSW,200,4.0,4.0,84,0.00,CLR,,0.00,0.0,WeatherDisplay:10.37,2013-07-22 07:23:00,
2013-07-22 00:28:00,67.3,62.3,29.91,SSW,200,3.5,3.5,84,0.00,CLR,,0.00,0.0,WeatherDisplay:10.37,2013-07-22 07:28:00,
2013-07-22 00:33:00,67.3,62.3,29.91,SSW,200,2.0,2.0,84,0.00,CLR,,0.00,0.0,WeatherDisplay:10.37,2013-07-22 07:33:00,
2013-07-22 00:38:00,67.2,62.2,29.91,SSW,200,3.5,3.5,84,0.00,CLR,,0.00,0.0,WeatherDisplay:10.37,2013-07-22 07:38:00,
2013-07-22 00:43:00,67.2,62.2,29.91,SSW,200,2.3,2.3,84,0.00,CLR,,0.00,0.0,WeatherDisplay:10.37,2013-07-22 07:43:00,
2013-07-22 00:48:00,67.2,62.2,29.92,SSW,200,1.2,1.2,84,0.00,CLR,,0.00,0.0,WeatherDisplay:10.37,2013-07-22 07:48:00,
2013-07-22 00:53:00,67.2,62.2,29.92,SSW,200,3.5,3.5,84,0.00,CLR,,0.00,0.0,WeatherDisplay:10.37,2013-07-22 07:53:00,
2013-07-22 00:58:00,67.2,62.2,29.92,SSW,200,1.2,1.2,84,0.00,CLR,,0.00,0.0,WeatherDisplay:10.37,2013-07-22 07:58:00,
2013-07-22 01:03:00,67.2,62.2,29.91,SSW,200,0.0,0.0,84,0.00,CLR,,0.00,0.0,WeatherDisplay:10.37,2013-07-22 08:03:00,
2013-07-22 01:08:00,67.2,62.2,29.91,SSW,200,2.3,2.3,84,0.00,CLR,,0.00,0.0,WeatherDisplay:10.37,2013-07-22 08:08:00,
2013-07-22 01:13:00,67.2,62.2,29.91,SSW,200,1.2,1.2,84,0.00,CLR,,0.00,0.0,WeatherDisplay:10.37,2013-07-22 08:13:00,
2013-07-22 01:18:00,67.2,62.2,29.91,SSW,200,3.5,3.5,84,0.00,CLR,,0.00,0.0,WeatherDisplay:10.37,2013-07-22 08:18:00,
2013-07-22 01:23:00,67.2,62.2,29.91,SSW,200,2.3,2.3,84,0.00,CLR,,0.00,0.0,WeatherDisplay:10.37,2013-07-22 08:23:00,
2013-07-22 01:28:00,67.1,62.1,29.91,SSW,200,2.3,2.3,84,0.00,CLR,,0.00,0.0,WeatherDisplay:10.37,2013-07-22 08:28:00,
2013-07-22 01:33:00,67.1,62.1,29.91,SSW,200,3.5,3.5,84,0.00,CLR,,0.00,0.0,WeatherDisplay:10.37,2013-07-22 08:33:00,
2013-07-22 01:38:00,67.0,62.0,29.91,SSW,200,2.3,2.3,84,0.00,CLR,,0.00,0.0,WeatherDisplay:10.37,2013-07-22 08:38:00,
2013-07-22 01:43:00,67.0,62.0,29.91,SSW,200,3.5,3.5,84,0.00,CLR,,0.00,0.0,WeatherDisplay:10.37,2013-07-22 08:43:00,
2013-07-22 01:48:00,67.0,62.3,29.91,SSW,200,2.3,2.3,85,0.00,CLR,,0.00,0.0,WeatherDisplay:10.37,2013-07-22 08:48:00,
2013-07-22 01:53:00,67.0,62.3,29.91,SSW,200,3.5,3.5,85,0.00,CLR,,0.00,0.0,WeatherDisplay:10.37,2013-07-22 08:53:00,
2013-07-22 01:58:00,66.9,62.2,29.91,SSW,200,3.5,3.5,85,0.00,CLR,,0.00,0.0,WeatherDisplay:10.37,2013-07-22 08:58:00,
2013-07-22 02:03:00,66.8,62.1,29.91,SSW,198,4.0,4.0,85,0.00,CLR,,0.00,0.0,WeatherDisplay:10.37,2013-07-22 09:03:00,
2013-07-22 02:08:00,66.7,62.4,29.91,SSW,198,3.5,3.5,86,0.00,CLR,,0.00,0.0,WeatherDisplay:10.37,2013-07-22 09:08:00,
2013-07-22 02:13:00,66.6,62.3,29.91,SSW,198,3.5,3.5,86,0.00,CLR,,0.00,0.0,WeatherDisplay:10.37,2013-07-22 09:13:00,
2013-07-22 02:18:00,66.5,62.2,29.91,SSW,198,2.3,2.3,86,0.00,CLR,,0.00,0.0,WeatherDisplay:10.37,2013-07-22 09:18:00,
2013-07-22 02:23:00,66.4,62.1,29.90,SSW,198,1.2,1.2,86,0.00,CLR,,0.00,0.0,WeatherDisplay:10.37,2013-07-22 09:23:00,
2013-07-22 02:28:00,66.4,62.1,29.90,SSW,198,2.3,2.3,86,0.00,CLR,,0.00,0.0,WeatherDisplay:10.37,2013-07-22 09:28:00,
2013-07-22 02:33:00,66.4,62.1,29.90,SSW,198,1.2,0.0,86,0.00,CLR,,0.00,0.0,WeatherDisplay:10.37,2013-07-22 09:33:00,
2013-07-22 02:38:00,66.3,62.0,29.91,SSW,198,3.5,3.5,86,0.00,CLR,,0.00,0.0,WeatherDisplay:10.37,2013-07-22 09:38:00,
2013-07-22 02:43:00,66.3,62.3,29.90,SSW,198,1.2,0.0,87,0.00,CLR,,0.00,0.0,WeatherDisplay:10.37,2013-07-22 09:43:00,
2013-07-22 02:48:00,66.3,62.0,29.90,SSW,198,2.3,2.3,86,0.00,CLR,,0.00,0.0,WeatherDisplay:10.37,2013-07-22 09:48:00,
2013-07-22 02:53:00,66.2,61.9,29.90,SSW,198,2.3,2.3,86,0.00,CLR,,0.00,0.0,WeatherDisplay:10.37,2013-07-22 09:53:00,
2013-07-22 02:58:00,66.2,61.9,29.90,SSW,198,2.0,2.0,86,0.00,CLR,,0.00,0.0,WeatherDisplay:10.37,2013-07-22 09:58:00,
2013-07-22 03:03:00,66.2,61.9,29.91,SSW,197,3.0,3.0,86,0.00,CLR,,0.00,0.0,WeatherDisplay:10.37,2013-07-22 10:03:00,
2013-07-22 03:08:00,66.2,62.2,29.90,SSW,198,3.5,3.5,87,0.00,CLR,,0.00,0.0,WeatherDisplay:10.37,2013-07-22 10:08:00,
2013-07-22 03:13:00,66.2,62.2,29.90,SSW,198,3.5,3.5,87,0.00,CLR,,0.00,0.0,WeatherDisplay:10.37,2013-07-22 10:13:00,
2013-07-22 03:18:00,66.2,62.2,29.91,SSW,198,2.3,2.3,87,0.00,CLR,,0.00,0.0,WeatherDisplay:10.37,2013-07-22 10:18:00,
2013-07-22 03:23:00,66.2,62.2,29.90,SSW,198,2.3,2.3,87,0.00,CLR,,0.00,0.0,WeatherDisplay:10.37,2013-07-22 10:23:00,
2013-07-22 03:28:00,66.1,62.1,29.90,SSW,198,3.5,3.5,87,0.00,CLR,,0.00,0.0,WeatherDisplay:10.37,2013-07-22 10:28:00,
2013-07-22 03:33:00,66.1,62.1,29.90,SSW,198,2.3,2.3,87,0.00,CLR,,0.00,0.0,WeatherDisplay:10.37,2013-07-22 10:33:00,
2013-07-22 03:38:00,66.1,62.1,29.90,SSW,198,2.3,2.3,87,0.00,CLR,,0.00,0.0,WeatherDisplay:10.37,2013-07-22 10:38:00,
2013-07-22 03:43:00,66.1,62.1,29.90,SSW,198,1.2,0.0,87,0.00,CLR,,0.00,0.0,WeatherDisplay:10.37,2013-07-22 10:43:00,
2013-07-22 03:48:00,66.1,62.1,29.90,SSW,198,2.0,2.0,87,0.00,CLR,,0.00,0.0,WeatherDisplay:10.37,2013-07-22 10:48:00,
2013-07-22 03:53:00,66.1,62.1,29.90,SSW,198,3.5,3.5,87,0.00,CLR,,0.00,0.0,WeatherDisplay:10.37,2013-07-22 10:53:00,
2013-07-22 03:58:00,66.1,62.1,29.90,SSW,198,2.3,2.3,87,0.00,CLR,,0.00,0.0,WeatherDisplay:10.37,2013-07-22 10:58:00,
2013-07-22 04:03:00,66.1,62.1,29.90,SSW,198,1.2,1.2,87,0.00,CLR,,0.00,0.0,WeatherDisplay:10.37,2013-07-22 11:03:00,
2013-07-22 04:08:00,66.1,62.1,29.90,SSW,198,1.2,1.2,87,0.00,CLR,,0.00,0.0,WeatherDisplay:10.37,2013-07-22 11:08:00,
2013-07-22 04:13:00,66.1,62.1,29.90,SSW,197,3.5,3.5,87,0.00,CLR,,0.00,0.0,WeatherDisplay:10.37,2013-07-22 11:13:00,
2013-07-22 04:18:00,66.1,62.1,29.90,SSW,198,2.3,2.3,87,0.00,CLR,,0.00,0.0,WeatherDisplay:10.37,2013-07-22 11:18:00,
2013-07-22 04:23:00,66.0,62.0,29.90,SSW,197,0.0,0.0,87,0.00,CLR,,0.00,0.0,WeatherDisplay:10.37,2013-07-22 11:23:00,
2013-07-22 04:28:00,66.0,62.0,29.91,SSW,198,2.3,2.3,87,0.00,CLR,,0.00,0.0,WeatherDisplay:10.37,2013-07-22 11:28:00,
2013-07-22 04:33:00,66.0,62.0,29.90,SSW,198,0.0,0.0,87,0.00,CLR,,0.00,0.0,WeatherDisplay:10.37,2013-07-22 11:33:00,
2013-07-22 04:38:00,66.0,62.3,29.91,SSW,198,2.3,2.3,88,0.00,CLR,,0.00,0.0,WeatherDisplay:10.37,2013-07-22 11:38:00,
2013-07-22 04:43:00,65.9,62.2,29.90,SSW,198,2.3,2.3,88,0.00,CLR,,0.00,0.0,WeatherDisplay:10.37,2013-07-22 11:43:00,
2013-07-22 04:48:00,65.9,62.2,29.91,SSW,198,3.5,3.5,88,0.00,CLR,,0.00,0.0,WeatherDisplay:10.37,2013-07-22 11:48:00,
2013-07-22 04:53:00,65.9,62.2,29.91,SSW,198,2.3,2.3,88,0.00,CLR,,0.00,0.0,WeatherDisplay:10.37,2013-07-22 11:53:00,
2013-07-22 04:58:00,65.9,62.2,29.91,SSW,198,0.0,0.0,88,0.00,CLR,,0.00,0.0,WeatherDisplay:10.37,2013-07-22 11:58:00,
2013-07-22 05:03:00,65.9,62.2,29.91,SSW,198,1.2,1.2,88,0.00,CLR,,0.00,0.0,WeatherDisplay:10.37,2013-07-22 12:03:00,
2013-07-22 05:08:00,65.9,62.2,29.91,SSW,198,1.2,1.2,88,0.00,CLR,,0.00,0.0,WeatherDisplay:10.37,2013-07-22 12:08:00,
2013-07-22 05:13:00,65.8,62.1,29.91,SSW,198,0.0,0.0,88,0.00,CLR,,0.00,0.0,WeatherDisplay:10.37,2013-07-22 12:13:00,
2013-07-22 05:18:00,65.8,62.1,29.91,SSW,197,0.0,0.0,88,0.00,CLR,,0.00,0.0,WeatherDisplay:10.37,2013-07-22 12:18:00,
2013-07-22 05:23:00,65.8,62.1,29.91,SSW,198,0.0,0.0,88,0.00,CLR,,0.00,0.0,WeatherDisplay:10.37,2013-07-22 12:23:00,
2013-07-22 05:28:00,65.8,62.1,29.91,SSW,197,0.0,0.0,88,0.00,CLR,,0.00,0.0,WeatherDisplay:10.37,2013-07-22 12:28:00,
2013-07-22 05:33:00,65.8,62.1,29.91,SSW,197,0.0,0.0,88,0.00,CLR,,0.00,0.0,WeatherDisplay:10.37,2013-07-22 12:33:00,
2013-07-22 05:38:00,65.7,62.0,29.91,SSW,197,0.0,0.0,88,0.00,CLR,,0.00,0.0,WeatherDisplay:10.37,2013-07-22 12:38:00,
2013-07-22 05:43:00,65.7,62.0,29.92,SSW,198,0.0,0.0,88,0.00,CLR,,0.00,0.0,WeatherDisplay:10.37,2013-07-22 12:43:00,
2013-07-22 05:48:00,65.7,62.0,29.92,SSW,197,1.2,0.0,88,0.00,CLR,,0.00,0.0,WeatherDisplay:10.37,2013-07-22 12:48:00,
2013-07-22 05:53:00,65.7,62.0,29.92,SSW,197,1.2,0.0,88,0.00,CLR,,0.00,0.0,WeatherDisplay:10.37,2013-07-22 12:53:00,
2013-07-22 05:58:00,65.7,62.0,29.92,SSW,198,1.2,1.2,88,0.00,SCT,,0.00,5.0,WeatherDisplay:10.37,2013-07-22 12:58:00,
2013-07-22 06:03:00,65.7,62.0,29.92,SSW,198,1.0,1.0,88,0.00,BKN,,0.00,9.0,WeatherDisplay:10.37,2013-07-22 13:03:00,
2013-07-22 06:08:00,65.7,62.0,29.92,SSW,198,0.0,0.0,88,0.00,BKN,,0.00,14.0,WeatherDisplay:10.37,2013-07-22 13:08:00,
2013-07-22 06:13:00,65.8,62.1,29.92,SSW,197,0.0,0.0,88,0.00,BKN,,0.00,19.0,WeatherDisplay:10.37,2013-07-22 13:13:00,
2013-07-22 06:18:00,65.8,62.1,29.92,SSW,198,1.2,0.0,88,0.00,BKN,,0.00,23.0,WeatherDisplay:10.37,2013-07-22 13:18:00,
2013-07-22 06:23:00,65.9,62.2,29.92,SSW,198,0.0,0.0,88,0.00,BKN,,0.00,28.0,WeatherDisplay:10.37,2013-07-22 13:23:00,
2013-07-22 06:28:00,65.9,62.2,29.93,SSW,198,0.0,0.0,88,0.00,SCT,,0.00,40.0,WeatherDisplay:10.37,2013-07-22 13:28:00,
2013-07-22 06:33:00,66.0,62.3,29.93,SSW,198,0.0,0.0,88,0.00,SCT,,0.00,58.0,WeatherDisplay:10.37,2013-07-22 13:33:00,
2013-07-22 06:38:00,66.1,62.4,29.93,SSW,198,0.0,0.0,88,0.00,SCT,,0.00,67.0,WeatherDisplay:10.37,2013-07-22 13:38:00,
2013-07-22 06:43:00,66.3,62.3,29.93,SSW,198,1.0,0.0,87,0.00,SCT,,0.00,72.0,WeatherDisplay:10.37,2013-07-22 13:43:00,
2013-07-22 06:48:00,66.5,62.5,29.93,SSW,198,0.0,0.0,87,0.00,SCT,,0.00,76.0,WeatherDisplay:10.37,2013-07-22 13:48:00,
2013-07-22 06:53:00,66.7,62.7,29.93,SSW,197,1.2,1.2,87,0.00,SCT,,0.00,98.0,WeatherDisplay:10.37,2013-07-22 13:53:00,
2013-07-22 06:58:00,66.9,62.9,29.93,SSW,197,0.0,0.0,87,0.00,SCT,,0.00,114.0,WeatherDisplay:10.37,2013-07-22 13:58:00,
2013-07-22 07:03:00,67.2,63.2,29.93,SSW,197,0.0,0.0,87,0.00,FEW,,0.00,128.0,WeatherDisplay:10.37,2013-07-22 14:03:00,
2013-07-22 07:08:00,67.5,62.8,29.93,SSW,197,1.2,1.2,85,0.00,FEW,,0.00,146.0,WeatherDisplay:10.37,2013-07-22 14:08:00,
2013-07-22 07:13:00,67.7,63.0,29.93,SSW,197,1.2,0.0,85,0.00,FEW,,0.00,165.0,WeatherDisplay:10.37,2013-07-22 14:13:00,
2013-07-22 07:18:00,68.0,63.0,29.93,SSW,197,1.2,1.2,84,0.00,FEW,,0.00,188.0,WeatherDisplay:10.37,2013-07-22 14:18:00,
2013-07-22 07:23:00,68.2,62.8,29.94,SSW,197,1.2,1.2,83,0.00,CLR,,0.00,207.0,WeatherDisplay:10.37,2013-07-22 14:23:00,
2013-07-22 07:28:00,68.4,63.4,29.94,SSW,197,1.0,1.0,84,0.00,CLR,,0.00,223.0,WeatherDisplay:10.37,2013-07-22 14:28:00,
2013-07-22 07:33:00,69.1,63.7,29.94,SSW,197,2.3,2.3,83,0.00,CLR,,0.00,243.0,WeatherDisplay:10.37,2013-07-22 14:33:00,
2013-07-22 07:38:00,69.3,63.2,29.95,SSW,197,1.2,1.2,81,0.00,CLR,,0.00,248.0,WeatherDisplay:10.37,2013-07-22 14:38:00,
2013-07-22 07:43:00,69.3,63.2,29.95,SSW,197,3.0,3.0,81,0.00,FEW,,0.00,218.0,WeatherDisplay:10.37,2013-07-22 14:43:00,
2013-07-22 07:48:00,69.3,63.2,29.95,SSW,197,2.3,2.3,81,0.00,SCT,,0.00,214.0,WeatherDisplay:10.37,2013-07-22 14:48:00,
2013-07-22 07:53:00,69.2,63.1,29.95,SSW,197,3.5,3.5,81,0.00,SCT,,0.00,241.0,WeatherDisplay:10.37,2013-07-22 14:53:00,
2013-07-22 07:58:00,69.3,63.2,29.95,SSW,197,3.0,3.0,81,0.00,FEW,,0.00,297.0,WeatherDisplay:10.37,2013-07-22 14:58:00,
2013-07-22 08:03:00,69.4,63.3,29.95,SSW,197,3.5,3.5,81,0.00,FEW,,0.00,301.0,WeatherDisplay:10.37,2013-07-22 15:03:00,
2013-07-22 08:08:00,69.5,63.4,29.95,SSW,197,2.3,2.3,81,0.00,FEW,,0.00,308.0,WeatherDisplay:10.37,2013-07-22 15:08:00,
2013-07-22 08:13:00,69.9,63.4,29.95,SSW,197,2.3,2.3,80,0.00,FEW,,0.00,320.0,WeatherDisplay:10.37,2013-07-22 15:13:00,
2013-07-22 08:18:00,70.3,63.8,29.95,SSW,197,2.0,0.0,80,0.00,FEW,,0.00,332.0,WeatherDisplay:10.37,2013-07-22 15:18:00,
2013-07-22 08:23:00,70.5,63.7,29.95,SSW,197,1.2,1.2,79,0.00,FEW,,0.00,348.0,WeatherDisplay:10.37,2013-07-22 15:23:00,
2013-07-22 08:28:00,70.9,64.1,29.95,SSW,197,1.2,1.2,79,0.00,FEW,,0.00,364.0,WeatherDisplay:10.37,2013-07-22 15:28:00,
2013-07-22 08:33:00,71.1,63.9,29.95,SSW,198,2.3,2.3,78,0.00,FEW,,0.00,381.0,WeatherDisplay:10.37,2013-07-22 15:33:00,
2013-07-22 08:38:00,71.4,63.8,29.95,SW,225,4.0,4.0,77,0.00,FEW,,0.00,394.0,WeatherDisplay:10.37,2013-07-22 15:38:00,
2013-07-22 08:43:00,71.2,63.6,29.95,SSW,201,4.6,4.6,77,0.00,FEW,,0.00,413.0,WeatherDisplay:10.37,2013-07-22 15:43:00,
2013-07-22 08:48:00,71.2,64.0,29.95,WSW,240,3.5,3.5,78,0.00,FEW,,0.00,420.0,WeatherDisplay:10.37,2013-07-22 15:48:00,
2013-07-22 08:53:00,71.6,64.0,29.95,WSW,257,5.0,5.0,77,0.00,FEW,,0.00,434.0,WeatherDisplay:10.37,2013-07-22 15:53:00,
2013-07-22 08:58:00,71.8,64.2,29.95,West,267,3.5,3.5,77,0.00,FEW,,0.00,454.0,WeatherDisplay:10.37,2013-07-22 15:58:00,
2013-07-22 09:03:00,72.1,64.1,29.95,West,267,3.5,3.5,76,0.00,SCT,,0.00,225.0,WeatherDisplay:10.37,2013-07-22 16:03:00,
2013-07-22 09:08:00,72.2,64.2,29.95,West,267,3.5,3.5,76,0.00,FEW,,0.00,475.0,WeatherDisplay:10.37,2013-07-22 16:08:00,
2013-07-22 09:13:00,72.7,64.7,29.95,West,265,2.3,2.3,76,0.00,FEW,,0.00,515.0,WeatherDisplay:10.37,2013-07-22 16:13:00,
2013-07-22 09:18:00,73.2,64.4,29.96,South,186,3.5,3.5,74,0.00,FEW,,0.00,533.0,WeatherDisplay:10.37,2013-07-22 16:18:00,
2013-07-22 09:23:00,73.2,64.4,29.95,South,183,3.5,3.5,74,0.00,FEW,,0.00,527.0,WeatherDisplay:10.37,2013-07-22 16:23:00,
2013-07-22 09:28:00,73.5,64.7,29.96,South,186,3.5,3.5,74,0.00,FEW,,0.00,545.0,WeatherDisplay:10.37,2013-07-22 16:28:00,
2013-07-22 09:33:00,73.7,64.9,29.96,SSW,204,4.6,4.6,74,0.00,FEW,,0.00,555.0,WeatherDisplay:10.37,2013-07-22 16:33:00,
2013-07-22 09:38:00,74.1,64.9,29.96,SSW,193,4.6,4.6,73,0.00,FEW,,0.00,566.0,WeatherDisplay:10.37,2013-07-22 16:38:00,
2013-07-22 09:43:00,74.2,64.6,29.95,SE,130,3.5,3.5,72,0.00,FEW,,0.00,578.0,WeatherDisplay:10.37,2013-07-22 16:43:00,
2013-07-22 09:48:00,74.4,64.8,29.95,SSW,206,3.5,3.5,72,0.00,FEW,,0.00,585.0,WeatherDisplay:10.37,2013-07-22 16:48:00,
2013-07-22 09:53:00,74.4,64.8,29.95,West,261,4.0,4.0,72,0.00,FEW,,0.00,605.0,WeatherDisplay:10.37,2013-07-22 16:53:00,
2013-07-22 09:58:00,74.6,64.6,29.95,SSW,210,5.0,5.0,71,0.00,FEW,,0.00,622.0,WeatherDisplay:10.37,2013-07-22 16:58:00,
2013-07-22 10:03:00,74.7,64.7,29.95,SSW,205,1.2,0.0,71,0.00,FEW,,0.00,631.0,WeatherDisplay:10.37,2013-07-22 17:03:00,
2013-07-22 10:08:00,75.4,64.9,29.95,SSW,198,4.0,4.0,70,0.00,FEW,,0.00,638.0,WeatherDisplay:10.37,2013-07-22 17:08:00,
2013-07-22 10:13:00,75.7,64.4,29.95,SSW,198,5.8,5.8,68,0.00,FEW,,0.00,656.0,WeatherDisplay:10.37,2013-07-22 17:13:00,
2013-07-22 10:18:00,75.9,65.0,29.95,WSW,254,5.0,5.0,69,0.00,FEW,,0.00,666.0,WeatherDisplay:10.37,2013-07-22 17:18:00,
2013-07-22 10:23:00,76.4,64.6,29.95,WSW,248,4.0,4.0,67,0.00,FEW,,0.00,677.0,WeatherDisplay:10.37,2013-07-22 17:23:00,
2013-07-22 10:28:00,76.6,65.2,29.95,WSW,255,2.0,2.0,68,0.00,FEW,,0.00,686.0,WeatherDisplay:10.37,2013-07-22 17:28:00,
2013-07-22 10:33:00,77.3,65.1,29.95,WNW,296,4.6,4.6,66,0.00,FEW,,0.00,698.0,WeatherDisplay:10.37,2013-07-22 17:33:00,
2013-07-22 10:38:00,77.4,64.7,29.95,West,277,4.6,4.6,65,0.00,FEW,,0.00,708.0,WeatherDisplay:10.37,2013-07-22 17:38:00,
2013-07-22 10:43:00,77.0,64.8,29.95,NW,323,4.6,4.6,66,0.00,FEW,,0.00,714.0,WeatherDisplay:10.37,2013-07-22 17:43:00,
2013-07-22 10:48:00,77.4,65.1,29.95,West,275,3.5,3.5,66,0.00,FEW,,0.00,728.0,WeatherDisplay:10.37,2013-07-22 17:48:00,
2013-07-22 10:53:00,77.9,65.6,29.95,South,191,5.0,5.0,66,0.00,FEW,,0.00,742.0,WeatherDisplay:10.37,2013-07-22 17:53:00,
2013-07-22 10:59:00,78.3,65.6,29.95,South,169,10.4,10.4,65,0.00,FEW,,0.00,747.0,WeatherDisplay:10.37,2013-07-22 17:59:00,
2013-07-22 11:04:00,78.6,65.4,29.96,South,178,5.0,5.0,64,0.00,FEW,,0.00,754.0,WeatherDisplay:10.37,2013-07-22 18:04:00,
2013-07-22 11:09:00,78.4,65.2,29.95,South,177,4.0,4.0,64,0.00,FEW,,0.00,763.0,WeatherDisplay:10.37,2013-07-22 18:09:00,
2013-07-22 11:14:00,78.9,65.7,29.96,ESE,112,4.0,4.0,64,0.00,FEW,,0.00,768.0,WeatherDisplay:10.37,2013-07-22 18:14:00,
2013-07-22 11:19:00,79.2,65.5,29.95,SE,133,5.8,5.8,63,0.00,FEW,,0.00,786.0,WeatherDisplay:10.37,2013-07-22 18:19:00,
2013-07-22 11:24:00,79.3,65.6,29.95,SE,145,7.0,7.0,63,0.00,FEW,,0.00,791.0,WeatherDisplay:10.37,2013-07-22 18:24:00,
2013-07-22 11:30:00,79.4,65.2,29.95,South,178,5.8,5.8,62,0.00,FEW,,0.00,810.0,WeatherDisplay:10.37,2013-07-22 18:30:00,
2013-07-22 11:35:00,79.6,65.4,29.95,WSW,237,4.6,4.6,62,0.00,SCT,,0.00,817.0,WeatherDisplay:10.37,2013-07-22 18:35:00,
2013-07-22 11:40:00,80.1,65.9,29.95,South,184,8.0,8.0,62,0.00,FEW,,0.00,812.0,WeatherDisplay:10.37,2013-07-22 18:40:00,
2013-07-22 11:46:00,80.3,65.6,29.95,SE,138,8.1,8.1,61,0.00,FEW,,0.00,819.0,WeatherDisplay:10.37,2013-07-22 18:46:00,
2013-07-22 11:51:00,80.6,65.9,29.95,South,171,9.0,9.0,61,0.00,FEW,,0.00,823.0,WeatherDisplay:10.37,2013-07-22 18:51:00,
2013-07-22 11:56:00,80.7,66.0,29.95,SSE,165,6.9,6.9,61,0.00,FEW,,0.00,831.0,WeatherDisplay:10.37,2013-07-22 18:56:00,
2013-07-22 12:02:00,80.9,65.7,29.95,SSW,200,3.0,3.0,60,0.00,FEW,,0.00,838.0,WeatherDisplay:10.37,2013-07-22 19:02:00,
2013-07-22 12:07:00,81.5,65.8,29.95,SSE,163,7.0,7.0,59,0.00,FEW,,0.00,846.0,WeatherDisplay:10.37,2013-07-22 19:07:00,
2013-07-22 12:12:00,81.4,65.2,29.95,WSW,240,8.1,8.1,58,0.00,FEW,,0.00,846.0,WeatherDisplay:10.37,2013-07-22 19:12:00,
2013-07-22 12:17:00,80.9,65.7,29.94,SSW,210,3.5,3.5,60,0.00,FEW,,0.00,849.0,WeatherDisplay:10.37,2013-07-22 19:17:00,
2013-07-22 12:23:00,81.3,66.1,29.95,SSW,208,8.1,8.1,60,0.00,FEW,,0.00,846.0,WeatherDisplay:10.37,2013-07-22 19:23:00,
2013-07-22 12:28:00,81.4,65.7,29.95,SSE,163,8.1,8.1,59,0.00,FEW,,0.00,851.0,WeatherDisplay:10.37,2013-07-22 19:28:00,
2013-07-22 12:33:00,81.8,65.6,29.94,SSW,204,5.8,5.8,58,0.00,FEW,,0.00,854.0,WeatherDisplay:10.37,2013-07-22 19:33:00,
2013-07-22 12:38:00,81.7,65.5,29.94,SSW,200,9.2,9.2,58,0.00,FEW,,0.00,860.0,WeatherDisplay:10.37,2013-07-22 19:38:00,
2013-07-22 12:43:00,81.8,65.1,29.94,SSW,199,9.2,9.2,57,0.00,FEW,,0.00,858.0,WeatherDisplay:10.37,2013-07-22 19:43:00,
2013-07-22 12:48:00,81.8,65.1,29.94,South,178,8.1,8.1,57,0.00,FEW,,0.00,858.0,WeatherDisplay:10.37,2013-07-22 19:48:00,
2013-07-22 12:54:00,82.0,64.8,29.94,SSW,211,11.5,11.5,56,0.00,FEW,,0.00,854.0,WeatherDisplay:10.37,2013-07-22 19:54:00,
2013-07-22 12:59:00,82.1,65.4,29.94,South,188,11.5,11.5,57,0.00,SCT,,0.00,863.0,WeatherDisplay:10.37,2013-07-22 19:59:00,
2013-07-22 13:04:00,81.9,65.7,29.94,SE,139,11.5,11.5,58,0.00,SCT,,0.00,854.0,WeatherDisplay:10.37,2013-07-22 20:04:00,
2013-07-22 13:09:00,82.2,65.4,29.94,SW,227,10.4,10.4,57,0.00,SCT,,0.00,851.0,WeatherDisplay:10.37,2013-07-22 20:09:00,
2013-07-22 13:14:00,82.2,65.4,29.94,South,183,11.5,11.5,57,0.00,SCT,,0.00,851.0,WeatherDisplay:10.37,2013-07-22 20:14:00,
2013-07-22 13:16:00,82.2,64.9,29.94,SSW,192,11.0,11.0,56,0.00,SCT,,0.00,847.0,WeatherDisplay:10.37,2013-07-22 20:16:00,
2013-07-22 13:17:00,82.2,64.9,29.94,SSW,192,11.0,11.0,56,0.00,SCT,,0.00,847.0,WeatherDisplay:10.37,2013-07-22 20:17:00,
2013-07-22 13:18:00,82.2,64.9,29.94,SSW,211,11.5,11.5,56,0.00,SCT,,0.00,853.0,WeatherDisplay:10.37,2013-07-22 20:18:00,
2013-07-22 13:23:00,82.0,64.8,29.94,South,174,5.0,5.0,56,0.00,FEW,,0.00,856.0,WeatherDisplay:10.37,2013-07-22 20:23:00,
2013-07-22 13:28:00,82.3,64.5,29.93,SSW,211,8.1,8.1,55,0.00,FEW,,0.00,853.0,WeatherDisplay:10.37,2013-07-22 20:28:00,
2013-07-22 13:33:00,82.3,64.5,29.93,South,181,10.0,10.0,55,0.00,FEW,,0.00,851.0,WeatherDisplay:10.37,2013-07-22 20:33:00,
2013-07-22 13:38:00,82.1,64.3,29.94,SE,136,9.2,9.2,55,0.00,FEW,,0.00,842.0,WeatherDisplay:10.37,2013-07-22 20:38:00,
2013-07-22 13:43:00,82.3,64.5,29.94,South,180,10.4,10.4,55,0.00,FEW,,0.00,842.0,WeatherDisplay:10.37,2013-07-22 20:43:00,
2013-07-22 13:48:00,82.7,64.9,29.94,SSW,192,6.9,6.9,55,0.00,FEW,,0.00,838.0,WeatherDisplay:10.37,2013-07-22 20:48:00,
2013-07-22 13:53:00,83.3,64.9,29.93,SSE,164,7.0,7.0,54,0.00,SCT,,0.00,838.0,WeatherDisplay:10.37,2013-07-22 20:53:00,
2013-07-22 13:58:00,82.9,64.0,29.93,SSE,161,10.4,10.4,53,0.00,FEW,,0.00,831.0,WeatherDisplay:10.37,2013-07-22 20:58:00,
2013-07-22 14:03:00,82.7,64.4,29.93,SSW,207,9.2,9.2,54,0.00,SCT,,0.00,575.0,WeatherDisplay:10.37,2013-07-22 21:03:00,
2013-07-22 14:08:00,83.2,64.3,29.93,SSW,203,8.1,8.1,53,0.00,SCT,,0.00,810.0,WeatherDisplay:10.37,2013-07-22 21:08:00,
2013-07-22 14:13:00,83.2,64.3,29.93,SSE,164,8.1,8.1,53,0.00,FEW,,0.00,823.0,WeatherDisplay:10.37,2013-07-22 21:13:00,
2013-07-22 14:18:00,83.3,64.4,29.93,SSE,155,10.4,10.4,53,0.00,FEW,,0.00,802.0,WeatherDisplay:10.37,2013-07-22 21:18:00,
2013-07-22 14:23:00,83.7,64.8,29.93,SW,232,10.4,10.4,53,0.00,FEW,,0.00,809.0,WeatherDisplay:10.37,2013-07-22 21:23:00,
2013-07-22 14:28:00,83.9,64.4,29.93,South,173,11.5,11.5,52,0.00,FEW,,0.00,807.0,WeatherDisplay:10.37,2013-07-22 21:28:00,
2013-07-22 14:33:00,83.8,64.3,29.93,South,188,10.4,10.4,52,0.00,FEW,,0.00,800.0,WeatherDisplay:10.37,2013-07-22 21:33:00,
2013-07-22 14:38:00,83.7,64.8,29.93,SSE,164,7.0,7.0,53,0.00,FEW,,0.00,793.0,WeatherDisplay:10.37,2013-07-22 21:38:00,
2013-07-22 14:43:00,83.9,64.9,29.93,SSW,208,11.5,11.5,53,0.00,FEW,,0.00,780.0,WeatherDisplay:10.37,2013-07-22 21:43:00,
2013-07-22 14:48:00,83.4,64.5,29.92,South,182,10.4,10.4,53,0.00,FEW,,0.00,770.0,WeatherDisplay:10.37,2013-07-22 21:48:00,
2013-07-22 14:53:00,83.2,64.8,29.92,SW,221,6.9,6.9,54,0.00,FEW,,0.00,779.0,WeatherDisplay:10.37,2013-07-22 21:53:00,
2013-07-22 14:58:00,83.7,64.8,29.92,SSE,155,9.2,9.2,53,0.00,SCT,,0.00,552.0,WeatherDisplay:10.37,2013-07-22 21:58:00,
2013-07-22 15:03:00,83.3,65.4,29.92,SSE,152,8.1,8.1,55,0.00,FEW,,0.00,745.0,WeatherDisplay:10.37,2013-07-22 22:03:00,
2013-07-22 15:08:00,83.4,65.0,29.92,SSW,198,10.4,10.4,54,0.00,FEW,,0.00,722.0,WeatherDisplay:10.37,2013-07-22 22:08:00,
2013-07-22 15:13:00,83.8,65.4,29.92,WSW,244,8.1,8.1,54,0.00,FEW,,0.00,717.0,WeatherDisplay:10.37,2013-07-22 22:13:00,
2013-07-22 15:18:00,84.6,66.1,29.92,WNW,286,11.5,11.5,54,0.00,FEW,,0.00,719.0,WeatherDisplay:10.37,2013-07-22 22:18:00,
2013-07-22 15:23:00,84.3,65.8,29.92,West,260,10.4,10.4,54,0.00,FEW,,0.00,707.0,WeatherDisplay:10.37,2013-07-22 22:23:00,
2013-07-22 15:28:00,84.2,65.8,29.92,SW,224,6.9,6.9,54,0.00,FEW,,0.00,687.0,WeatherDisplay:10.37,2013-07-22 22:28:00,
2013-07-22 15:33:00,84.3,65.8,29.92,South,184,9.2,9.2,54,0.00,FEW,,0.00,689.0,WeatherDisplay:10.37,2013-07-22 22:33:00,
2013-07-22 15:38:00,84.3,65.8,29.92,West,270,8.1,8.1,54,0.00,FEW,,0.00,668.0,WeatherDisplay:10.37,2013-07-22 22:38:00,
2013-07-22 15:43:00,84.0,65.6,29.92,West,263,9.2,9.2,54,0.00,FEW,,0.00,656.0,WeatherDisplay:10.37,2013-07-22 22:43:00,
2013-07-22 15:48:00,83.3,65.4,29.91,West,277,8.1,8.1,55,0.00,FEW,,0.00,647.0,WeatherDisplay:10.37,2013-07-22 22:48:00,
2013-07-22 15:53:00,83.8,65.9,29.91,SSW,202,7.0,7.0,55,0.00,FEW,,0.00,635.0,WeatherDisplay:10.37,2013-07-22 22:53:00,
2013-07-22 15:58:00,83.1,65.8,29.92,WNW,288,8.1,8.1,56,0.00,FEW,,0.00,613.0,WeatherDisplay:10.37,2013-07-22 22:58:00,
2013-07-22 16:03:00,82.9,65.6,29.92,WNW,295,10.4,10.4,56,0.00,FEW,,0.00,605.0,WeatherDisplay:10.37,2013-07-22 23:03:00,
2013-07-22 16:08:00,83.2,65.9,29.92,West,261,8.0,8.0,56,0.00,FEW,,0.00,589.0,WeatherDisplay:10.37,2013-07-22 23:08:00,
2013-07-22 16:13:00,83.2,65.9,29.92,West,263,8.1,8.1,56,0.00,FEW,,0.00,577.0,WeatherDisplay:10.37,2013-07-22 23:13:00,
2013-07-22 16:18:00,83.1,65.3,29.92,WSW,250,12.7,12.7,55,0.00,FEW,,0.00,568.0,WeatherDisplay:10.37,2013-07-22 23:18:00,
2013-07-22 16:23:00,82.7,65.4,29.91,SSW,192,10.4,10.4,56,0.00,FEW,,0.00,555.0,WeatherDisplay:10.37,2013-07-22 23:23:00,
2013-07-22 16:28:00,83.0,65.7,29.91,SSW,196,4.6,4.6,56,0.00,FEW,,0.00,543.0,WeatherDisplay:10.37,2013-07-22 23:28:00,
2013-07-22 16:33:00,83.2,65.4,29.91,WSW,254,4.6,4.6,55,0.00,FEW,,0.00,527.0,WeatherDisplay:10.37,2013-07-22 23:33:00,
2013-07-22 16:38:00,82.9,65.1,29.91,SSW,207,9.2,9.2,55,0.00,FEW,,0.00,512.0,WeatherDisplay:10.37,2013-07-22 23:38:00,
2013-07-22 16:43:00,82.8,65.5,29.91,West,264,11.5,11.5,56,0.00,FEW,,0.00,504.0,WeatherDisplay:10.37,2013-07-22 23:43:00,
2013-07-22 16:48:00,82.9,65.6,29.91,SW,216,8.1,8.1,56,0.00,FEW,,0.00,489.0,WeatherDisplay:10.37,2013-07-22 23:48:00,
2013-07-22 16:53:00,83.1,65.3,29.91,SSW,211,6.0,6.0,55,0.00,FEW,,0.00,478.0,WeatherDisplay:10.37,2013-07-22 23:53:00,
2013-07-22 16:58:00,83.0,65.2,29.91,WSW,252,8.1,8.1,55,0.00,FEW,,0.00,464.0,WeatherDisplay:10.37,2013-07-22 23:58:00,
2013-07-22 17:03:00,82.2,64.9,29.90,WSW,257,8.1,8.1,56,0.00,FEW,,0.00,448.0,WeatherDisplay:10.37,2013-07-23 00:03:00,
2013-07-22 17:08:00,81.9,65.2,29.90,SSW,204,9.2,9.2,57,0.00,FEW,,0.00,434.0,WeatherDisplay:10.37,2013-07-23 00:08:00,
2013-07-22 17:13:00,81.4,64.7,29.90,West,260,10.4,10.4,57,0.00,FEW,,0.00,420.0,WeatherDisplay:10.37,2013-07-23 00:13:00,
2013-07-22 17:18:00,81.4,64.7,29.90,SSW,196,8.1,8.1,57,0.00,FEW,,0.00,404.0,WeatherDisplay:10.37,2013-07-23 00:18:00,
2013-07-22 17:23:00,81.7,65.0,29.90,WSW,254,7.0,7.0,57,0.00,FEW,,0.00,387.0,WeatherDisplay:10.37,2013-07-23 00:23:00,
2013-07-22 17:28:00,81.2,64.5,29.90,West,261,9.2,9.2,57,0.00,FEW,,0.00,378.0,WeatherDisplay:10.37,2013-07-23 00:28:00,
2013-07-22 17:33:00,80.6,64.5,29.90,West,269,9.2,9.2,58,0.00,FEW,,0.00,360.0,WeatherDisplay:10.37,2013-07-23 00:33:00,
2013-07-22 17:38:00,80.3,64.7,29.90,WSW,258,7.0,7.0,59,0.00,FEW,,0.00,345.0,WeatherDisplay:10.37,2013-07-23 00:38:00,
2013-07-22 17:43:00,80.3,64.7,29.90,WNW,291,10.4,10.4,59,0.00,FEW,,0.00,330.0,WeatherDisplay:10.37,2013-07-23 00:43:00,
2013-07-22 17:48:00,79.4,64.3,29.90,West,271,7.0,7.0,60,0.00,FEW,,0.00,315.0,WeatherDisplay:10.37,2013-07-23 00:48:00,
2013-07-22 17:53:00,79.3,64.2,29.91,WSW,239,8.1,8.1,60,0.00,FEW,,0.00,301.0,WeatherDisplay:10.37,2013-07-23 00:53:00,
2013-07-22 17:58:00,79.3,64.2,29.91,WSW,239,5.8,5.8,60,0.00,FEW,,0.00,285.0,WeatherDisplay:10.37,2013-07-23 00:58:00,
2013-07-22 18:03:00,79.4,64.3,29.91,WSW,251,6.9,6.9,60,0.00,FEW,,0.00,271.0,WeatherDisplay:10.37,2013-07-23 01:03:00,
2013-07-22 18:08:00,79.0,63.9,29.91,SW,225,6.0,6.0,60,0.00,FEW,,0.00,255.0,WeatherDisplay:10.37,2013-07-23 01:08:00,
2013-07-22 18:13:00,78.8,63.7,29.91,West,272,8.1,8.1,60,0.00,FEW,,0.00,241.0,WeatherDisplay:10.37,2013-07-23 01:13:00,
2013-07-22 18:18:00,78.4,63.8,29.91,West,271,11.5,11.5,61,0.00,FEW,,0.00,225.0,WeatherDisplay:10.37,2013-07-23 01:18:00,
2013-07-22 18:23:00,77.8,63.7,29.91,WSW,244,9.2,9.2,62,0.00,FEW,,0.00,211.0,WeatherDisplay:10.37,2013-07-23 01:23:00,
2013-07-22 18:28:00,78.0,63.9,29.91,West,261,8.1,8.1,62,0.00,FEW,,0.00,197.0,WeatherDisplay:10.37,2013-07-23 01:28:00,
2013-07-22 18:33:00,77.8,63.7,29.91,West,261,7.0,7.0,62,0.00,FEW,,0.00,183.0,WeatherDisplay:10.37,2013-07-23 01:33:00,
2013-07-22 18:38:00,77.2,63.6,29.91,SW,235,6.9,6.9,63,0.00,FEW,,0.00,165.0,WeatherDisplay:10.37,2013-07-23 01:38:00,
2013-07-22 18:43:00,77.1,63.5,29.92,WSW,255,6.9,6.9,63,0.00,FEW,,0.00,151.0,WeatherDisplay:10.37,2013-07-23 01:43:00,
2013-07-22 18:48:00,77.2,63.6,29.92,WSW,242,6.9,6.9,63,0.00,SCT,,0.00,134.0,WeatherDisplay:10.37,2013-07-23 01:48:00,
2013-07-22 18:53:00,76.8,63.7,29.92,WSW,254,9.2,9.2,64,0.00,SCT,,0.00,118.0,WeatherDisplay:10.37,2013-07-23 01:53:00,
2013-07-22 18:58:00,76.3,63.7,29.92,WSW,257,8.1,8.1,65,0.00,SCT,,0.00,102.0,WeatherDisplay:10.37,2013-07-23 01:58:00,
2013-07-22 19:03:00,76.0,63.4,29.92,WSW,257,8.1,8.1,65,0.00,SCT,,0.00,88.0,WeatherDisplay:10.37,2013-07-23 02:03:00,
2013-07-22 19:08:00,75.7,63.1,29.92,SW,231,11.5,11.5,65,0.00,SCT,,0.00,74.0,WeatherDisplay:10.37,2013-07-23 02:08:00,
2013-07-22 19:13:00,75.5,63.3,29.92,WNW,286,6.0,6.0,66,0.00,SCT,,0.00,58.0,WeatherDisplay:10.37,2013-07-23 02:13:00,
2013-07-22 19:18:00,75.2,63.1,29.92,WSW,248,5.8,5.8,66,0.00,BKN,,0.00,49.0,WeatherDisplay:10.37,2013-07-23 02:18:00,
2013-07-22 19:23:00,74.9,63.2,29.92,West,259,8.1,8.1,67,0.00,BKN,,0.00,40.0,WeatherDisplay:10.37,2013-07-23 02:23:00,
2013-07-22 19:28:00,74.6,63.3,29.92,SSW,209,8.1,8.1,68,0.00,BKN,,0.00,30.0,WeatherDisplay:10.37,2013-07-23 02:28:00,
2013-07-22 19:33:00,74.2,63.0,29.93,WSW,248,8.1,8.1,68,0.00,BKN,,0.00,23.0,WeatherDisplay:10.37,2013-07-23 02:33:00,
2013-07-22 19:38:00,73.7,62.9,29.93,WSW,250,6.9,6.9,69,0.00,BKN,,0.00,18.0,WeatherDisplay:10.37,2013-07-23 02:38:00,
2013-07-22 19:43:00,73.6,62.8,29.93,West,264,7.0,7.0,69,0.00,BKN,,0.00,12.0,WeatherDisplay:10.37,2013-07-23 02:43:00,
2013-07-22 19:48:00,73.3,62.5,29.93,West,260,8.1,8.1,69,0.00,BKN,,0.00,9.0,WeatherDisplay:10.37,2013-07-23 02:48:00,
2013-07-22 19:53:00,72.8,62.4,29.93,West,274,9.2,9.2,70,0.00,BKN,,0.00,5.0,WeatherDisplay:10.37,2013-07-23 02:53:00,
2013-07-22 19:58:00,72.5,62.6,29.93,WSW,237,8.0,8.0,71,0.00,CLR,,0.00,0.0,WeatherDisplay:10.37,2013-07-23 02:58:00,
2013-07-22 20:03:00,72.4,62.5,29.93,West,270,6.9,6.9,71,0.00,CLR,,0.00,0.0,WeatherDisplay:10.37,2013-07-23 03:03:00,
2013-07-22 20:08:00,72.3,62.4,29.93,West,267,6.0,6.0,71,0.00,CLR,,0.00,0.0,WeatherDisplay:10.37,2013-07-23 03:08:00,
2013-07-22 20:13:00,72.1,62.2,29.93,West,259,8.1,8.1,71,0.00,CLR,,0.00,0.0,WeatherDisplay:10.37,2013-07-23 03:13:00,
2013-07-22 20:18:00,71.8,62.3,29.93,West,281,5.0,5.0,72,0.00,CLR,,0.00,0.0,WeatherDisplay:10.37,2013-07-23 03:18:00,
2013-07-22 20:23:00,71.6,62.1,29.94,West,261,5.8,5.8,72,0.00,CLR,,0.00,0.0,WeatherDisplay:10.37,2013-07-23 03:23:00,
2013-07-22 20:28:00,71.4,62.3,29.94,West,269,4.6,4.6,73,0.00,CLR,,0.00,0.0,WeatherDisplay:10.37,2013-07-23 03:28:00,
2013-07-22 20:33:00,71.3,62.2,29.94,WSW,257,5.0,5.0,73,0.00,CLR,,0.00,0.0,WeatherDisplay:10.37,2013-07-23 03:33:00,
2013-07-22 20:38:00,71.2,62.1,29.94,WNW,292,5.0,5.0,73,0.00,CLR,,0.00,0.0,WeatherDisplay:10.37,2013-07-23 03:38:00,
2013-07-22 20:43:00,71.2,62.1,29.94,WNW,284,4.0,4.0,73,0.00,CLR,,0.00,0.0,WeatherDisplay:10.37,2013-07-23 03:43:00,
2013-07-22 20:48:00,71.3,62.2,29.94,West,281,4.0,4.0,73,0.00,CLR,,0.00,0.0,WeatherDisplay:10.37,2013-07-23 03:48:00,
2013-07-22 20:53:00,71.2,62.1,29.94,West,281,3.5,3.5,73,0.00,CLR,,0.00,0.0,WeatherDisplay:10.37,2013-07-23 03:53:00,
2013-07-22 20:58:00,71.2,62.1,29.94,West,277,4.0,4.0,73,0.00,CLR,,0.00,0.0,WeatherDisplay:10.37,2013-07-23 03:58:00,
2013-07-22 21:01:00,71.1,62.4,29.94,West,277,5.8,5.8,74,0.00,CLR,,0.00,0.0,WeatherDisplay:10.37,2013-07-23 04:01:00,
2013-07-22 21:02:00,71.0,62.3,29.94,WNW,288,6.0,6.0,74,0.00,CLR,,0.00,0.0,WeatherDisplay:10.37,2013-07-23 04:02:00,
2013-07-22 21:07:00,70.7,62.0,29.94,West,268,5.0,5.0,74,0.00,CLR,,0.00,0.0,WeatherDisplay:10.37,2013-07-23 04:07:00,
2013-07-22 21:12:00,70.5,61.8,29.94,WNW,285,4.6,4.6,74,0.00,CLR,,0.00,0.0,WeatherDisplay:10.37,2013-07-23 04:12:00,
2013-07-22 21:17:00,70.6,61.9,29.94,West,277,7.0,7.0,74,0.00,CLR,,0.00,0.0,WeatherDisplay:10.37,2013-07-23 04:17:00,
2013-07-22 21:22:00,70.3,62.0,29.94,WNW,286,6.0,6.0,75,0.00,CLR,,0.00,0.0,WeatherDisplay:10.37,2013-07-23 04:22:00,
2013-07-22 21:27:00,70.2,61.9,29.94,West,280,3.5,3.5,75,0.00,CLR,,0.00,0.0,WeatherDisplay:10.37,2013-07-23 04:27:00,
2013-07-22 21:32:00,70.2,61.9,29.94,West,273,4.6,4.6,75,0.00,CLR,,0.00,0.0,WeatherDisplay:10.37,2013-07-23 04:32:00,
2013-07-22 21:37:00,70.1,61.8,29.94,West,273,5.0,5.0,75,0.00,CLR,,0.00,0.0,WeatherDisplay:10.37,2013-07-23 04:37:00,
2013-07-22 21:42:00,69.9,62.0,29.94,West,264,6.0,6.0,76,0.00,CLR,,0.00,0.0,WeatherDisplay:10.37,2013-07-23 04:42:00,
2013-07-22 21:47:00,69.8,61.9,29.94,West,260,3.5,3.5,76,0.00,CLR,,0.00,0.0,WeatherDisplay:10.37,2013-07-23 04:47:00,
2013-07-22 21:52:00,69.7,61.8,29.94,West,261,3.5,3.5,76,0.00,CLR,,0.00,0.0,WeatherDisplay:10.37,2013-07-23 04:52:00,
2013-07-22 21:57:00,69.7,61.8,29.95,West,263,4.6,4.6,76,0.00,CLR,,0.00,0.0,WeatherDisplay:10.37,2013-07-23 04:57:00,
2013-07-22 22:02:00,69.6,61.7,29.95,West,263,2.3,2.3,76,0.00,CLR,,0.00,0.0,WeatherDisplay:10.37,2013-07-23 05:02:00,
2013-07-22 22:07:00,69.6,61.7,29.95,West,264,3.5,3.5,76,0.00,CLR,,0.00,0.0,WeatherDisplay:10.37,2013-07-23 05:07:00,
2013-07-22 22:12:00,69.5,61.6,29.95,West,265,3.5,3.5,76,0.00,CLR,,0.00,0.0,WeatherDisplay:10.37,2013-07-23 05:12:00,
2013-07-22 22:17:00,69.5,61.6,29.95,West,265,2.3,2.3,76,0.00,CLR,,0.00,0.0,WeatherDisplay:10.37,2013-07-23 05:17:00,
2013-07-22 22:22:00,69.5,61.6,29.95,West,265,1.2,1.2,76,0.00,CLR,,0.00,0.0,WeatherDisplay:10.37,2013-07-23 05:22:00,
2013-07-22 22:27:00,69.5,61.6,29.96,West,265,2.3,2.3,76,0.00,CLR,,0.00,0.0,WeatherDisplay:10.37,2013-07-23 05:27:00,
2013-07-22 22:32:00,69.5,61.6,29.95,West,265,2.3,2.3,76,0.00,CLR,,0.00,0.0,WeatherDisplay:10.37,2013-07-23 05:32:00,
2013-07-22 22:37:00,69.5,61.6,29.95,West,265,2.3,2.3,76,0.00,CLR,,0.00,0.0,WeatherDisplay:10.37,2013-07-23 05:37:00,
2013-07-22 22:42:00,69.5,61.6,29.96,West,265,2.3,2.3,76,0.00,CLR,,0.00,0.0,WeatherDisplay:10.37,2013-07-23 05:42:00,
2013-07-22 22:47:00,69.5,61.6,29.96,West,265,2.3,2.3,76,0.00,CLR,,0.00,0.0,WeatherDisplay:10.37,2013-07-23 05:47:00,
2013-07-22 22:52:00,69.4,61.9,29.96,West,265,2.0,2.0,77,0.00,CLR,,0.00,0.0,WeatherDisplay:10.37,2013-07-23 05:52:00,
2013-07-22 22:57:00,69.4,61.9,29.96,West,265,1.2,1.2,77,0.00,CLR,,0.00,0.0,WeatherDisplay:10.37,2013-07-23 05:57:00,
2013-07-22 23:02:00,69.5,62.0,29.96,West,265,3.5,3.5,77,0.00,CLR,,0.00,0.0,WeatherDisplay:10.37,2013-07-23 06:02:00,
2013-07-22 23:07:00,69.5,62.0,29.96,West,265,3.5,3.5,77,0.00,CLR,,0.00,0.0,WeatherDisplay:10.37,2013-07-23 06:07:00,
2013-07-22 23:12:00,69.5,62.0,29.96,West,265,3.5,3.5,77,0.00,CLR,,0.00,0.0,WeatherDisplay:10.37,2013-07-23 06:12:00,
2013-07-22 23:17:00,69.5,62.0,29.96,West,265,3.5,3.5,77,0.00,CLR,,0.00,0.0,WeatherDisplay:10.37,2013-07-23 06:17:00,
2013-07-22 23:22:00,69.4,61.9,29.96,West,265,3.5,3.5,77,0.00,CLR,,0.00,0.0,WeatherDisplay:10.37,2013-07-23 06:22:00,
2013-07-22 23:27:00,69.4,61.9,29.96,West,265,3.5,3.5,77,0.00,CLR,,0.00,0.0,WeatherDisplay:10.37,2013-07-23 06:27:00,
2013-07-22 23:32:00,69.4,61.9,29.96,West,265,3.5,3.5,77,0.00,CLR,,0.00,0.0,WeatherDisplay:10.37,2013-07-23 06:32:00,
2013-07-22 23:37:00,69.4,61.9,29.96,West,265,3.5,3.5,77,0.00,CLR,,0.00,0.0,WeatherDisplay:10.37,2013-07-23 06:37:00,
2013-07-22 23:42:00,69.4,61.9,29.96,West,265,3.5,3.5,77,0.00,CLR,,0.00,0.0,WeatherDisplay:10.37,2013-07-23 06:42:00,
2013-07-22 23:47:00,69.5,62.0,29.96,West,265,3.5,3.5,77,0.00,CLR,,0.00,0.0,WeatherDisplay:10.37,2013-07-23 06:47:00,
2013-07-22 23:52:00,69.4,61.9,29.96,West,266,4.0,4.0,77,0.00,CLR,,0.00,0.0,WeatherDisplay:10.37,2013-07-23 06:52:00,
2013-07-22 23:57:00,69.2,61.7,29.96,West,266,3.5,3.5,77,0.00,CLR,,0.00,0.0,WeatherDisplay:10.37,2013-07-23 06:57:00,